Time;durP1;ratioP1;P1;durP2;ratioP2;P2;SDS_P1;SDS_P2;PMS_P1;PMS_P2;Temp;Humidity;BMP_temperature;BMP_pressure;BME280_temperature;BME280_humidity;BME280_pressure;Samples;Min_cycle;Max_cycle;Signal;HPM_P1;HPM_P2
2024/01/15 00:02:00;;;;;;;0.20;0.20;;;;;;;2.66;61.07;100619.69;4938864;28;20031;-84
2024/01/15 00:04:26;;;;;;;0.20;0.20;;;;;;;2.80;61.79;100642.44;4880058;28;1707210;-86
2024/01/15 00:06:52;;;;;;;0.20;0.20;;;;;;;2.80;62.09;100622.00;4939960;28;20038;-85
2024/01/15 00:09:17;;;;;;;0.10;0.10;;;;;;;2.79;61.43;100635.66;4923316;28;20039;-85
2024/01/15 00:11:43;;;;;;;0.20;0.20;;;;;;;2.74;61.48;100627.22;4955364;28;20027;-85
2024/01/15 00:14:09;;;;;;;0.20;0.20;;;;;;;2.69;61.26;100624.75;4938809;28;20035;-85
2024/01/15 00:16:34;;;;;;;0.20;0.20;;;;;;;2.79;61.66;100630.53;4939237;28;20042;-85
2024/01/15 00:19:00;;;;;;;0.20;0.20;;;;;;;2.83;61.60;100632.16;4939329;28;20103;-85
2024/01/15 00:21:25;;;;;;;0.20;0.20;;;;;;;2.83;61.91;100642.38;4955349;28;20438;-85
2024/01/15 00:23:51;;;;;;;0.20;0.20;;;;;;;2.75;61.56;100624.66;4938895;28;20043;-85
2024/01/15 00:26:17;;;;;;;0.20;0.20;;;;;;;2.62;61.88;100610.38;4939295;28;20489;-86
2024/01/15 00:28:42;;;;;;;0.20;0.20;;;;;;;2.63;62.02;100618.88;4955393;28;20030;-85
2024/01/15 00:31:08;;;;;;;0.10;0.10;;;;;;;2.59;62.41;100618.09;4923209;28;20509;-84
2024/01/15 00:33:33;;;;;;;0.20;0.20;;;;;;;2.50;63.12;100628.47;4939056;28;20035;-85
2024/01/15 00:35:59;;;;;;;0.20;0.20;;;;;;;2.52;63.00;100621.63;4923082;28;20041;-85
2024/01/15 00:38:24;;;;;;;0.10;0.10;;;;;;;2.49;62.73;100612.28;4955001;28;20065;-85
2024/01/15 00:40:50;;;;;;;0.10;0.10;;;;;;;2.37;62.49;100602.28;4954669;28;20031;-86
2024/01/15 00:43:18;;;;;;;0.20;0.20;;;;;;;2.50;61.99;100611.44;4971892;28;20033;-85
2024/01/15 00:45:43;;;;;;;0.20;0.20;;;;;;;2.42;62.01;100613.25;4923627;28;20034;-86
2024/01/15 00:48:09;;;;;;;0.20;0.20;;;;;;;2.32;62.33;100613.41;4938652;28;20529;-85
2024/01/15 00:50:34;;;;;;;0.20;0.20;;;;;;;2.16;62.86;100605.13;4938717;28;20068;-85
2024/01/15 00:53:00;;;;;;;0.20;0.20;;;;;;;2.04;63.12;100574.69;4938547;28;20117;-85
2024/01/15 00:55:26;;;;;;;0.20;0.20;;;;;;;2.16;62.73;100603.44;4972330;28;20034;-85
2024/01/15 00:57:52;;;;;;;0.20;0.20;;;;;;;2.20;63.54;100612.75;4922905;28;20093;-85
2024/01/15 01:00:17;;;;;;;0.20;0.20;;;;;;;2.16;64.24;100607.69;4938838;28;20031;-86
2024/01/15 01:02:43;;;;;;;0.20;0.20;;;;;;;2.28;63.86;100607.53;4938692;28;20027;-85
2024/01/15 01:05:09;;;;;;;0.10;0.10;;;;;;;2.27;64.25;100616.91;4938824;28;20047;-86
2024/01/15 01:07:34;;;;;;;0.20;0.20;;;;;;;2.21;63.91;100622.09;4938477;28;20081;-85
2024/01/15 01:10:00;;;;;;;0.10;0.10;;;;;;;2.23;63.68;100624.59;4938522;28;20023;-85
2024/01/15 01:12:25;;;;;;;0.10;0.10;;;;;;;2.17;64.04;100614.50;4938738;28;20026;-85
2024/01/15 01:14:51;;;;;;;0.10;0.10;;;;;;;2.15;63.62;100617.06;4922662;28;20041;-85
2024/01/15 01:17:16;;;;;;;0.20;0.20;;;;;;;2.04;64.76;100602.78;4938328;28;20027;-85
2024/01/15 01:19:42;;;;;;;0.10;0.10;;;;;;;2.09;65.91;100618.88;4938330;28;20039;-85
2024/01/15 01:22:07;;;;;;;0.20;0.20;;;;;;;2.06;66.20;100601.88;4938144;28;20039;-85
2024/01/15 01:24:33;;;;;;;0.20;0.20;;;;;;;1.93;66.15;100601.22;4938947;28;20077;-85
2024/01/15 01:26:58;;;;;;;0.10;0.10;;;;;;;1.83;66.75;100593.72;4940338;28;20031;-85
2024/01/15 01:29:24;;;;;;;0.20;0.20;;;;;;;1.81;67.18;100616.69;4942753;28;20073;-85
2024/01/15 01:31:49;;;;;;;0.20;0.20;;;;;;;1.85;66.62;100607.28;4942101;28;20508;-85
2024/01/15 01:34:15;;;;;;;0.20;0.20;;;;;;;1.68;66.67;100590.53;4941963;28;20073;-85
2024/01/15 01:36:42;;;;;;;0.10;0.10;;;;;;;1.78;66.56;100604.00;4958022;28;20492;-83
2024/01/15 01:39:07;;;;;;;0.10;0.10;;;;;;;1.56;65.97;100566.88;4942310;28;20023;-82
2024/01/15 01:41:33;;;;;;;0.10;0.10;;;;;;;1.73;66.35;100605.75;4958271;28;20034;-83
2024/01/15 01:43:58;;;;;;;0.10;0.10;;;;;;;1.71;66.42;100602.38;4942125;28;20027;-82
2024/01/15 01:46:25;;;;;;;0.20;0.20;;;;;;;1.68;66.02;100600.72;4958158;28;20086;-82
2024/01/15 01:48:51;;;;;;;0.20;0.20;;;;;;;1.57;66.10;100591.50;4926440;28;20027;-85
2024/01/15 01:51:17;;;;;;;0.10;0.10;;;;;;;1.63;65.97;100591.44;4941839;28;20062;-85
2024/01/15 01:53:43;;;;;;;0.20;0.20;;;;;;;1.61;66.36;100603.34;4941720;28;20468;-85
2024/01/15 01:56:09;;;;;;;0.20;0.20;;;;;;;1.51;65.89;100586.50;4941837;28;20500;-85
2024/01/15 01:58:34;;;;;;;0.20;0.20;;;;;;;1.42;67.15;100593.38;4941752;28;20038;-85
2024/01/15 02:01:00;;;;;;;0.10;0.10;;;;;;;1.37;66.72;100579.00;4941660;28;20026;-85
2024/01/15 02:03:27;;;;;;;0.20;0.20;;;;;;;1.33;67.14;100580.75;4941669;28;20481;-85
2024/01/15 02:05:52;;;;;;;0.10;0.10;;;;;;;1.37;66.81;100579.84;4925254;28;20212;-85
2024/01/15 02:08:18;;;;;;;0.10;0.10;;;;;;;1.31;67.03;100562.09;4941619;28;20106;-85
2024/01/15 02:10:43;;;;;;;0.10;0.10;;;;;;;1.26;67.37;100550.25;4941588;28;20125;-84
2024/01/15 02:13:09;;;;;;;0.10;0.10;;;;;;;1.38;67.10;100567.97;4942002;28;20520;-85
2024/01/15 02:15:34;;;;;;;0.20;0.20;;;;;;;1.36;67.13;100562.00;4941456;28;20488;-85
2024/01/15 02:18:01;;;;;;;0.20;0.20;;;;;;;1.36;66.98;100559.47;4941245;28;20425;-85
2024/01/15 02:20:27;;;;;;;0.10;0.10;;;;;;;1.38;67.42;100556.06;4941323;28;20062;-85
2024/01/15 02:22:52;;;;;;;0.10;0.10;;;;;;;1.41;67.11;100555.16;4941593;28;20066;-85
2024/01/15 02:25:18;;;;;;;0.10;0.10;;;;;;;1.39;66.82;100545.00;4925537;28;20033;-85
2024/01/15 02:27:44;;;;;;;0.10;0.10;;;;;;;1.49;66.48;100537.22;4925491;28;20419;-85
2024/01/15 02:30:11;;;;;;;0.10;0.10;;;;;;;1.56;65.92;100538.81;4941618;28;20027;-85
2024/01/15 02:32:36;;;;;;;0.20;0.20;;;;;;;1.44;66.07;100534.72;4941535;28;20027;-85
2024/01/15 02:35:02;;;;;;;0.10;0.10;;;;;;;1.38;66.24;100509.34;4940865;28;20034;-85
2024/01/15 02:37:27;;;;;;;0.20;0.20;;;;;;;1.29;66.29;100515.38;4956870;28;20762;-85
2024/01/15 02:39:53;;;;;;;0.10;0.10;;;;;;;1.31;66.93;100530.66;4925220;28;20031;-85
2024/01/15 02:42:18;;;;;;;0.10;0.10;;;;;;;1.16;67.49;100521.47;4941010;28;20062;-85
2024/01/15 02:44:44;;;;;;;0.13;0.13;;;;;;;1.18;67.58;100512.13;4941031;28;20035;-85
2024/01/15 02:47:09;;;;;;;0.20;0.20;;;;;;;1.18;67.86;100517.22;4956827;28;20027;-85
2024/01/15 02:49:35;;;;;;;0.10;0.10;;;;;;;1.19;67.91;100518.91;4940631;28;20066;-85
2024/01/15 02:52:00;;;;;;;0.10;0.10;;;;;;;1.24;67.60;100517.13;4956466;28;20031;-85
2024/01/15 02:54:26;;;;;;;0.10;0.10;;;;;;;1.24;67.76;100517.13;4940967;28;20031;-85
2024/01/15 02:56:51;;;;;;;0.10;0.10;;;;;;;1.26;68.11;100520.50;4940865;28;20113;-85
2024/01/15 02:59:17;;;;;;;0.10;0.10;;;;;;;1.20;69.16;100514.66;4940934;28;20447;-85
2024/01/15 03:01:43;;;;;;;0.10;0.10;;;;;;;1.17;68.95;100519.78;4940953;28;20493;-85
2024/01/15 03:04:08;;;;;;;0.10;0.10;;;;;;;1.08;68.14;100506.31;4940356;28;20073;-85
2024/01/15 03:06:34;;;;;;;0.20;0.20;;;;;;;0.99;68.12;100496.22;4940600;28;20058;-85
2024/01/15 03:08:59;;;;;;;0.10;0.10;;;;;;;0.99;68.42;100490.28;4924830;28;20441;-84
2024/01/15 03:11:25;;;;;;;0.20;0.20;;;;;;;1.08;68.30;100501.22;4940734;28;20481;-84
2024/01/15 03:13:50;;;;;;;0.10;0.10;;;;;;;1.01;68.71;100499.59;4956177;28;20038;-84
2024/01/15 03:16:16;;;;;;;0.20;0.20;;;;;;;1.16;68.72;100501.09;4924754;28;20043;-85
2024/01/15 03:18:41;;;;;;;0.10;0.10;;;;;;;0.90;69.08;100465.78;4940265;28;20039;-85
2024/01/15 03:21:07;;;;;;;0.10;0.10;;;;;;;1.03;69.12;100487.69;4956477;28;20494;-85
2024/01/15 03:23:32;;;;;;;0.10;0.10;;;;;;;1.10;69.14;100496.09;4940424;28;20512;-85
2024/01/15 03:25:58;;;;;;;0.10;0.10;;;;;;;0.92;69.64;100468.28;4956303;28;20031;-85
2024/01/15 03:28:23;;;;;;;0.10;0.10;;;;;;;1.06;69.25;100482.53;4940439;28;20473;-85
2024/01/15 03:30:49;;;;;;;0.10;0.10;;;;;;;1.04;69.94;100473.22;4924303;28;20038;-84
2024/01/15 03:33:15;;;;;;;0.10;0.10;;;;;;;0.98;70.03;100470.75;4955825;28;20604;-85
2024/01/15 03:35:40;;;;;;;0.20;0.20;;;;;;;0.86;69.91;100452.22;4939671;28;21051;-86
2024/01/15 03:38:06;;;;;;;0.20;0.20;;;;;;;0.97;70.27;100464.81;4939966;28;20121;-85
2024/01/15 03:40:31;;;;;;;0.10;0.10;;;;;;;0.97;69.94;100459.72;4939974;28;20038;-85
2024/01/15 03:42:57;;;;;;;0.10;0.10;;;;;;;0.82;70.23;100440.38;4939902;28;20125;-85
2024/01/15 03:45:22;;;;;;;0.20;0.20;;;;;;;0.88;70.31;100438.59;4955979;28;20062;-85
2024/01/15 03:47:48;;;;;;;0.20;0.20;;;;;;;1.00;70.45;100446.97;4939526;28;20121;-85
2024/01/15 03:50:13;;;;;;;0.20;0.20;;;;;;;1.00;70.04;100446.13;4923270;28;20433;-86
2024/01/15 03:52:39;;;;;;;0.20;0.20;;;;;;;0.97;70.30;100443.59;4939901;28;20478;-85
2024/01/15 03:55:05;;;;;;;0.20;0.20;;;;;;;0.97;70.46;100451.22;4939861;28;20027;-85
2024/01/15 03:57:30;;;;;;;0.20;0.20;;;;;;;1.01;70.75;100448.66;4939774;28;20058;-85
2024/01/15 03:59:56;;;;;;;0.20;0.20;;;;;;;1.01;70.23;100429.97;4939187;28;20512;-86
2024/01/15 04:02:21;;;;;;;0.20;0.20;;;;;;;1.20;70.45;100448.41;4972580;28;20038;-84
2024/01/15 04:04:47;;;;;;;0.10;0.10;;;;;;;0.90;70.22;100403.81;4923493;28;20046;-84
2024/01/15 04:07:12;;;;;;;0.20;0.20;;;;;;;1.13;70.13;100427.25;4939527;28;20027;-84
2024/01/15 04:09:38;;;;;;;0.20;0.20;;;;;;;1.08;70.50;100424.78;4955208;28;20034;-85
2024/01/15 04:12:04;;;;;;;0.20;0.20;;;;;;;1.05;69.81;100424.81;4939333;28;20061;-85
2024/01/15 04:14:29;;;;;;;0.10;0.10;;;;;;;1.08;70.21;100436.66;4923248;28;20117;-85
2024/01/15 04:16:55;;;;;;;0.20;0.20;;;;;;;1.10;69.84;100432.41;4939410;28;20030;-83
2024/01/15 04:19:20;;;;;;;0.20;0.20;;;;;;;1.07;69.20;100409.50;4939336;28;20030;-85
2024/01/15 04:21:46;;;;;;;0.10;0.10;;;;;;;1.15;68.91;100433.16;4939175;28;20030;-85
2024/01/15 04:24:11;;;;;;;0.20;0.20;;;;;;;1.08;68.96;100434.09;4939380;28;20425;-86
2024/01/15 04:26:37;;;;;;;0.10;0.10;;;;;;;1.01;68.90;100427.44;4939184;28;20417;-85
2024/01/15 04:29:02;;;;;;;0.10;0.10;;;;;;;0.97;68.65;100426.59;4954617;28;20031;-85
2024/01/15 04:31:28;;;;;;;0.10;0.10;;;;;;;0.78;68.59;100403.06;4953014;28;20027;-86
2024/01/15 04:33:53;;;;;;;0.20;0.20;;;;;;;0.81;68.28;100420.03;4953321;28;20042;-86
2024/01/15 04:36:19;;;;;;;0.20;0.20;;;;;;;0.90;68.14;100426.72;4954952;28;20038;-89
2024/01/15 04:38:44;;;;;;;0.10;0.10;;;;;;;0.92;68.11;100432.63;4955761;28;20026;-92
2024/01/15 04:41:13;;;;;;;0.20;0.20;;;;;;;0.89;68.33;100433.53;4971812;28;20074;-91
2024/01/15 04:43:39;;;;;;;0.20;0.20;;;;;;;0.82;68.52;100432.75;4939147;28;20037;-91
2024/01/15 04:46:06;;;;;;;0.20;0.20;;;;;;;0.84;69.06;100420.81;4954957;28;20405;-88
2024/01/15 04:48:32;;;;;;;0.10;0.10;;;;;;;0.74;68.29;100403.97;4970812;28;20544;-89
2024/01/15 04:50:57;;;;;;;0.10;0.10;;;;;;;0.76;68.40;100422.63;4954621;28;20026;-87
2024/01/15 04:53:23;;;;;;;0.10;0.10;;;;;;;0.63;68.64;100410.91;4970781;28;20030;-88
2024/01/15 04:55:48;;;;;;;0.10;0.10;;;;;;;0.76;68.51;100412.44;4954043;28;20042;-87
2024/01/15 04:58:14;;;;;;;0.20;0.20;;;;;;;0.53;68.29;100389.81;4954520;28;20315;-86
2024/01/15 05:00:39;;;;;;;0.10;0.10;;;;;;;0.69;68.28;100420.16;4970404;28;20079;-87
2024/01/15 05:03:05;;;;;;;0.10;0.10;;;;;;;0.69;67.93;100420.16;4938572;28;20046;-87
2024/01/15 05:05:30;;;;;;;0.20;0.20;;;;;;;0.52;68.43;100403.41;4954360;28;20051;-87
2024/01/15 05:07:56;;;;;;;0.10;0.10;;;;;;;0.62;68.24;100409.22;4970361;28;20026;-87
2024/01/15 05:10:21;;;;;;;0.20;0.20;;;;;;;0.62;68.37;100411.78;4931856;28;20042;-86
2024/01/15 05:12:47;;;;;;;0.10;0.10;;;;;;;0.63;68.76;100404.97;4953189;28;20027;-87
2024/01/15 05:15:12;;;;;;;0.10;0.10;;;;;;;0.66;68.61;100420.19;4952401;28;20023;-88
2024/01/15 05:17:38;;;;;;;0.20;0.20;;;;;;;0.55;68.97;100392.31;4968202;28;20034;-88
2024/01/15 05:20:04;;;;;;;0.20;0.20;;;;;;;0.69;69.02;100404.88;4940962;28;20034;-88
2024/01/15 05:22:30;;;;;;;0.20;0.20;;;;;;;0.73;69.12;100391.28;4938294;28;20062;-88
2024/01/15 05:24:55;;;;;;;0.20;0.20;;;;;;;0.82;69.32;100398.81;4934638;28;20062;-90
2024/01/15 05:27:21;;;;;;;0.20;0.20;;;;;;;0.75;69.57;100390.38;4937731;28;20061;-92
2024/01/15 05:29:46;;;;;;;0.10;0.10;;;;;;;0.79;69.47;100389.50;4952719;28;20552;-85
2024/01/15 05:32:12;;;;;;;0.20;0.20;;;;;;;0.84;69.24;100390.28;4937521;28;20091;-85
2024/01/15 05:34:38;;;;;;;0.10;0.10;;;;;;;0.74;68.86;100375.97;4955963;28;20070;-84
2024/01/15 05:37:03;;;;;;;0.20;0.20;;;;;;;0.93;68.89;100385.91;4963636;28;20014;-84
2024/01/15 05:39:29;;;;;;;0.20;0.20;;;;;;;0.99;68.71;100396.03;4962941;28;20113;-92
2024/01/15 05:41:54;;;;;;;0.20;0.20;;;;;;;0.96;68.92;100401.16;4966255;28;20500;-84
2024/01/15 05:44:20;;;;;;;0.10;0.10;;;;;;;1.03;69.17;100410.41;4940407;28;20522;-88
2024/01/15 05:46:45;;;;;;;0.20;0.20;;;;;;;1.01;68.78;100391.75;4952056;28;20433;-83
2024/01/15 05:49:11;;;;;;;0.20;0.20;;;;;;;1.13;68.17;100411.97;4937492;28;20527;-82
2024/01/15 05:51:36;;;;;;;0.20;0.20;;;;;;;0.94;68.69;100380.81;4971153;28;20042;-83
2024/01/15 05:54:02;;;;;;;0.20;0.20;;;;;;;1.06;68.51;100395.91;4970834;28;20493;-84
2024/01/15 05:56:27;;;;;;;0.10;0.10;;;;;;;1.14;68.96;100403.47;4924200;28;20082;-87
2024/01/15 05:58:53;;;;;;;0.10;0.10;;;;;;;1.06;69.89;100410.34;4939354;28;20038;-87
2024/01/15 06:01:18;;;;;;;0.20;0.20;;;;;;;1.06;69.51;100405.25;4953694;28;20042;-90
2024/01/15 06:03:44;;;;;;;0.10;0.10;;;;;;;1.14;69.33;100418.75;4968683;28;20054;-91
2024/01/15 06:06:09;;;;;;;0.10;0.10;;;;;;;1.23;68.35;100403.34;4941909;28;20070;-88
2024/01/15 06:08:35;;;;;;;0.10;0.10;;;;;;;1.34;67.87;100406.56;4964751;28;20482;-93
2024/01/15 06:11:00;;;;;;;0.20;0.20;;;;;;;1.04;68.29;100377.25;4948916;28;20092;-83
2024/01/15 06:13:26;;;;;;;0.10;0.10;;;;;;;1.08;69.05;100385.69;4953641;28;20031;-84
2024/01/15 06:15:52;;;;;;;0.10;0.10;;;;;;;1.08;68.70;100378.06;4936983;29;20478;-89
2024/01/15 06:18:17;;;;;;;0.20;0.20;;;;;;;1.31;68.50;100396.41;4959893;28;20549;-88
2024/01/15 06:20:43;;;;;;;0.10;0.10;;;;;;;1.32;66.91;100393.00;4960132;28;20477;-86
2024/01/15 06:23:08;;;;;;;0.20;0.20;;;;;;;1.20;66.39;100347.31;4954832;28;20063;-85
2024/01/15 06:25:34;;;;;;;0.10;0.10;;;;;;;1.53;64.84;100385.91;4967670;28;20098;-86
2024/01/15 06:27:59;;;;;;;0.10;0.10;;;;;;;1.63;63.97;100382.34;4943248;28;20425;-87
2024/01/15 06:30:25;;;;;;;0.10;0.10;;;;;;;1.60;63.88;100382.38;4972778;28;20478;-89
2024/01/15 06:32:50;;;;;;;0.10;0.10;;;;;;;1.65;63.52;100380.59;4940720;28;20030;-88
2024/01/15 06:35:16;;;;;;;0.20;0.20;;;;;;;1.76;63.32;100376.16;4942356;28;20027;-87
2024/01/15 06:37:41;;;;;;;0.20;0.20;;;;;;;1.72;63.38;100367.72;4963005;28;20039;-88
2024/01/15 06:40:08;;;;;;;0.20;0.20;;;;;;;1.78;63.31;100366.78;4956107;28;20030;-91
2024/01/15 06:42:34;;;;;;;0.10;0.10;;;;;;;1.81;64.18;100356.53;4930550;28;20054;-91
2024/01/15 06:44:59;;;;;;;0.10;0.10;;;;;;;2.22;66.52;100352.38;4944157;28;20397;-88
2024/01/15 06:47:25;;;;;;;0.10;0.10;;;;;;;2.22;63.45;100345.56;4942036;28;20499;-87
2024/01/15 06:49:51;;;;;;;0.20;0.20;;;;;;;2.32;63.09;100342.81;4956018;28;20023;-91
2024/01/15 06:52:17;;;;;;;0.13;0.13;;;;;;;2.17;63.63;100329.50;4940715;28;20402;-93
2024/01/15 06:54:42;;;;;;;0.10;0.10;;;;;;;2.13;63.97;100332.13;4955022;28;20033;-90
2024/01/15 06:57:08;;;;;;;0.10;0.10;;;;;;;2.00;64.96;100334.91;4970060;28;20074;-81
2024/01/15 06:59:35;;;;;;;0.20;0.20;;;;;;;1.96;64.72;100329.88;4954822;28;20031;-81
2024/01/15 07:02:01;;;;;;;0.10;0.10;;;;;;;1.81;64.68;100331.03;4955721;28;20081;-80
2024/01/15 07:04:26;;;;;;;0.10;0.10;;;;;;;1.87;64.83;100338.56;4939456;28;20027;-88
2024/01/15 07:06:52;;;;;;;0.10;0.10;;;;;;;1.92;65.53;100325.72;4957257;28;20425;-86
2024/01/15 07:09:17;;;;;;;0.10;0.10;;;;;;;1.92;65.42;100341.03;4954858;28;20105;-84
2024/01/15 07:11:46;;;;;;;0.10;0.10;;;;;;;1.86;65.94;100321.56;4939273;28;20030;-90
2024/01/15 07:14:12;;;;;;;0.20;0.20;;;;;;;1.88;65.80;100319.84;4972622;28;20405;-83
2024/01/15 07:16:38;;;;;;;0.15;0.15;;;;;;;1.99;65.61;100348.53;4974678;28;20042;-92
2024/01/15 07:19:05;;;;;;;0.20;0.20;;;;;;;1.99;65.80;100351.09;4961340;28;20110;-92
2024/01/15 07:21:31;;;;;;;0.20;0.20;;;;;;;1.88;65.91;100334.31;4956329;28;20101;-87
2024/01/15 07:23:57;;;;;;;0.10;0.10;;;;;;;1.83;65.96;100353.94;4942471;28;20031;-91
2024/01/15 07:26:23;;;;;;;0.20;0.20;;;;;;;1.71;66.69;100355.00;4950801;28;20386;-86
2024/01/15 07:28:48;;;;;;;0.20;0.20;;;;;;;1.71;66.64;100345.63;4938125;28;20073;-83
2024/01/15 07:31:16;;;;;;;0.10;0.10;;;;;;;1.66;66.65;100351.66;4938068;28;20378;-87
2024/01/15 07:33:41;;;;;;;0.20;0.20;;;;;;;1.81;66.46;100360.78;4940010;28;20481;-88
2024/01/15 07:36:07;;;;;;;0.20;0.20;;;;;;;1.80;66.82;100344.63;4960671;28;20039;-92
2024/01/15 07:38:32;;;;;;;0.20;0.20;;;;;;;1.86;66.61;100361.53;4936822;28;20486;-92
2024/01/15 07:40:58;;;;;;;0.20;0.20;;;;;;;1.61;66.36;100330.53;4925700;28;20035;-90
2024/01/15 07:43:24;;;;;;;0.20;0.20;;;;;;;1.84;66.43;100346.25;4947399;28;20031;-87
2024/01/15 07:45:49;;;;;;;0.20;0.20;;;;;;;1.84;65.89;100343.72;4954870;28;20034;-86
2024/01/15 07:48:15;;;;;;;0.10;0.10;;;;;;;1.88;66.05;100341.97;4938769;28;20469;-88
2024/01/15 07:50:40;;;;;;;0.10;0.10;;;;;;;1.95;65.65;100341.81;4955267;28;20042;-86
2024/01/15 07:53:06;;;;;;;0.10;0.10;;;;;;;1.78;65.16;100310.69;4954976;28;20046;-88
2024/01/15 07:55:32;;;;;;;0.10;0.10;;;;;;;2.00;65.03;100337.47;4920381;28;20117;-88
2024/01/15 07:58:01;;;;;;;0.20;0.20;;;;;;;2.01;65.80;100341.69;4945360;28;20035;-88
2024/01/15 08:00:27;;;;;;;0.10;0.10;;;;;;;2.23;67.33;100333.63;4935716;28;20038;-92
2024/01/15 08:02:53;;;;;;;0.10;0.10;;;;;;;2.34;65.75;100347.03;4955276;28;20034;-85
2024/01/15 08:05:19;;;;;;;0.10;0.10;;;;;;;2.34;65.64;100338.53;4937925;28;20563;-84
2024/01/15 08:07:44;;;;;;;0.10;0.10;;;;;;;2.33;65.65;100334.28;4957500;28;20030;-82
2024/01/15 08:10:10;;;;;;;0.10;0.10;;;;;;;2.22;65.55;100321.75;4970779;28;20405;-83
2024/01/15 08:12:35;;;;;;;0.20;0.20;;;;;;;2.30;65.84;100350.53;4954734;28;20035;-80
2024/01/15 08:15:01;;;;;;;0.20;0.20;;;;;;;2.18;65.23;100340.56;4953920;28;20094;-82
2024/01/15 08:17:29;;;;;;;0.10;0.10;;;;;;;2.24;65.45;100353.19;4940145;28;20038;-87
2024/01/15 08:19:55;;;;;;;0.20;0.20;;;;;;;2.23;65.09;100348.94;4954522;28;20512;-88
2024/01/15 08:22:20;;;;;;;0.20;0.20;;;;;;;2.07;65.63;100358.63;4940470;28;20074;-92
2024/01/15 08:24:46;;;;;;;0.20;0.20;;;;;;;2.22;65.68;100353.22;4947627;28;20485;-84
2024/01/15 08:27:11;;;;;;;0.20;0.20;;;;;;;2.22;65.68;100348.09;4963046;28;20038;-88
2024/01/15 08:29:37;;;;;;;0.20;0.20;;;;;;;2.21;64.89;100341.31;4937866;28;20034;-83
2024/01/15 08:32:02;;;;;;;0.10;0.10;;;;;;;2.18;65.10;100338.00;4950261;28;20069;-86
2024/01/15 08:34:28;;;;;;;0.20;0.20;;;;;;;2.24;64.75;100341.25;4966814;28;20038;-89
2024/01/15 08:36:54;;;;;;;0.20;0.20;;;;;;;2.17;65.62;100343.97;4948016;28;20398;-87
2024/01/15 08:39:19;;;;;;;0.17;0.17;;;;;;;2.11;65.87;100337.25;4953081;28;20077;-87
2024/01/15 08:41:46;;;;;;;0.10;0.10;;;;;;;2.13;64.90;100337.22;4953544;28;20031;-84
2024/01/15 08:44:12;;;;;;;0.20;0.20;;;;;;;2.25;64.17;100331.88;4953130;28;20037;-86
2024/01/15 08:46:37;;;;;;;0.10;0.10;;;;;;;2.29;63.43;100326.72;4977529;28;20027;-83
2024/01/15 08:49:03;;;;;;;0.20;0.20;;;;;;;2.37;63.23;100331.66;4954114;28;20035;-85
2024/01/15 08:51:29;;;;;;;0.20;0.20;;;;;;;2.46;62.57;100334.03;4952837;28;20023;-86
2024/01/15 08:53:56;;;;;;;0.20;0.20;;;;;;;2.38;62.68;100312.94;4953390;28;20511;-86
2024/01/15 08:56:21;;;;;;;0.10;0.10;;;;;;;2.29;62.76;100290.97;4936071;28;20134;-87
2024/01/15 08:58:47;;;;;;;0.20;0.20;;;;;;;2.56;63.15;100325.31;4954744;28;20123;-86
2024/01/15 09:01:12;;;;;;;0.20;0.20;;;;;;;2.71;63.26;100331.78;4969990;28;20041;-84
2024/01/15 09:03:38;;;;;;;0.10;0.10;;;;;;;2.91;62.87;100317.75;4952962;28;20066;-84
2024/01/15 09:06:04;;;;;;;0.10;0.10;;;;;;;3.08;62.13;100310.53;4952739;28;20069;-85
2024/01/15 09:08:29;;;;;;;0.20;0.20;;;;;;;3.22;60.96;100300.81;4938232;28;20035;-86
2024/01/15 09:10:55;;;;;;;0.20;0.20;;;;;;;3.37;61.51;100294.50;4953139;28;20051;-86
2024/01/15 09:13:20;;;;;;;0.20;0.20;;;;;;;3.42;60.85;100300.34;4952845;28;20118;-84
2024/01/15 09:15:46;;;;;;;0.20;0.20;;;;;;;3.31;60.48;100271.63;4970424;28;20066;-83
2024/01/15 09:18:11;;;;;;;0.20;0.20;;;;;;;3.12;60.71;100266.97;4953549;28;20485;-83
2024/01/15 09:20:38;;;;;;;0.20;0.20;;;;;;;3.35;60.34;100289.44;4953365;28;20097;-87
2024/01/15 09:23:04;;;;;;;0.20;0.20;;;;;;;3.32;60.35;100283.53;4954252;28;20385;-84
2024/01/15 09:25:29;;;;;;;0.20;0.20;;;;;;;3.24;60.61;100280.31;4963230;28;20060;-91
2024/01/15 09:27:55;;;;;;;0.20;0.20;;;;;;;3.16;61.27;100258.38;4970730;28;20413;-87
2024/01/15 09:30:20;;;;;;;0.20;0.20;;;;;;;3.36;61.46;100274.94;4953215;28;20053;-85
2024/01/15 09:32:46;;;;;;;0.20;0.20;;;;;;;3.28;62.17;100279.41;4952903;28;20054;-82
2024/01/15 09:35:11;;;;;;;0.10;0.10;;;;;;;3.41;62.10;100273.94;4969964;28;20101;-89
2024/01/15 09:37:37;;;;;;;0.20;0.20;;;;;;;3.35;62.84;100252.81;4932675;28;20031;-92
2024/01/15 09:40:06;;;;;;;0.10;0.10;;;;;;;3.37;63.24;100256.16;4954772;28;20023;-88
2024/01/15 09:42:32;;;;;;;0.10;0.10;;;;;;;3.36;62.98;100257.03;4953342;28;20022;-85
2024/01/15 09:44:58;;;;;;;0.20;0.20;;;;;;;3.37;63.08;100243.38;4937632;28;20046;-82
2024/01/15 09:47:24;;;;;;;0.20;0.20;;;;;;;3.53;63.08;100259.16;4953217;28;20390;-88
2024/01/15 09:49:50;;;;;;;0.10;0.10;;;;;;;3.58;63.70;100224.06;4957069;28;20157;-88
2024/01/15 09:52:15;;;;;;;0.20;0.20;;;;;;;3.68;61.90;100208.44;4957010;28;20069;-87
2024/01/15 09:54:43;;;;;;;0.20;0.20;;;;;;;3.87;61.52;100236.06;4959606;28;20030;-91
2024/01/15 09:57:09;;;;;;;0.20;0.20;;;;;;;3.90;60.73;100234.25;4922633;28;20050;-83
2024/01/15 09:59:34;;;;;;;0.20;0.20;;;;;;;3.94;60.10;100225.63;4956842;28;20031;-84
2024/01/15 10:02:00;;;;;;;0.20;0.20;;;;;;;3.82;59.49;100217.44;4940878;28;20042;-85
2024/01/15 10:04:26;;;;;;;0.10;0.10;;;;;;;3.98;59.80;100218.69;4939643;28;20058;-91
2024/01/15 10:06:51;;;;;;;0.20;0.20;;;;;;;3.98;60.04;100219.53;4969638;28;20708;-89
2024/01/15 10:09:17;;;;;;;0.20;0.20;;;;;;;3.87;59.52;100216.44;4925679;28;20093;-87
2024/01/15 10:11:43;;;;;;;0.20;0.20;;;;;;;3.91;58.56;100217.19;4940072;28;20034;-84
2024/01/15 10:14:12;;;;;;;0.20;0.20;;;;;;;3.90;59.32;100225.75;4939869;28;20023;-84
2024/01/15 10:16:41;;;;;;;0.20;0.20;;;;;;;3.89;59.58;100209.56;4948248;28;20041;-84
2024/01/15 10:19:10;;;;;;;0.20;0.20;;;;;;;3.93;59.34;100212.84;4938638;28;20023;-84
2024/01/15 10:21:36;;;;;;;0.17;0.17;;;;;;;3.89;59.93;100208.72;4939047;28;20090;-86
2024/01/15 10:24:02;;;;;;;0.20;0.20;;;;;;;3.87;60.47;100207.94;4956018;28;20030;-85
2024/01/15 10:26:28;;;;;;;0.20;0.20;;;;;;;3.90;59.47;100205.28;4956552;28;20027;-93
2024/01/15 10:28:53;;;;;;;0.20;0.20;;;;;;;3.94;59.99;100192.38;4956094;28;20022;-84
2024/01/15 10:31:22;;;;;;;0.10;0.10;;;;;;;3.85;59.83;100186.66;4973501;28;20170;-81
2024/01/15 10:33:51;;;;;;;0.20;0.20;;;;;;;4.08;59.92;100206.47;4972386;28;20089;-93
2024/01/15 10:36:17;;;;;;;0.20;0.20;;;;;;;3.98;59.00;100188.81;4957091;28;20030;-87
2024/01/15 10:38:46;;;;;;;0.10;0.10;;;;;;;4.17;59.19;100198.53;4940435;28;20504;-83
2024/01/15 10:41:12;;;;;;;0.20;0.20;;;;;;;3.95;59.17;100147.13;4955506;28;20023;-83
2024/01/15 10:43:37;;;;;;;0.20;0.20;;;;;;;4.09;59.04;100185.94;4956487;28;20495;-86
2024/01/15 10:46:03;;;;;;;0.20;0.20;;;;;;;3.90;59.92;100169.44;4974204;28;20068;-90
2024/01/15 10:48:30;;;;;;;0.10;0.10;;;;;;;4.14;66.02;100173.03;4956728;28;20027;-86
2024/01/15 10:50:57;;;;;;;0.20;0.20;;;;;;;4.32;60.08;100168.16;4955869;28;20042;-84
2024/01/15 10:53:22;;;;;;;0.20;0.20;;;;;;;4.34;60.57;100162.19;4939779;28;20572;-85
2024/01/15 10:55:51;;;;;;;0.20;0.20;;;;;;;4.23;59.43;100157.41;4918012;29;20135;-87
2024/01/15 10:58:17;;;;;;;0.20;0.20;;;;;;;4.18;59.99;100156.69;4940735;28;20023;-80
2024/01/15 11:00:42;;;;;;;0.20;0.20;;;;;;;4.24;59.08;100152.22;4939215;28;20031;-85
2024/01/15 11:03:08;;;;;;;0.20;0.20;;;;;;;4.39;59.10;100173.94;4956049;28;20086;-83
2024/01/15 11:05:40;;;;;;;0.20;0.20;;;;;;;4.34;59.38;100159.63;4939198;28;20046;-84
2024/01/15 11:08:07;;;;;;;0.10;0.10;;;;;;;4.36;59.15;100162.97;4956121;28;20046;-84
2024/01/15 11:10:41;;;;;;;0.20;0.20;;;;;;;4.46;59.19;100165.19;4954711;28;20045;-85
2024/01/15 11:13:14;;;;;;;0.20;0.20;;;;;;;4.32;59.82;100147.69;4964549;28;20033;-88
2024/01/15 11:15:59;;;;;;;0.20;0.20;;;;;;;4.38;60.15;100151.78;4939222;28;20031;-81
2024/01/15 11:18:27;;;;;;;0.10;0.10;;;;;;;4.44;60.01;100159.28;4955275;28;20042;-85
2024/01/15 11:21:17;;;;;;;0.10;0.10;;;;;;;4.42;59.54;100155.06;4961483;28;20055;-82
2024/01/15 11:23:43;;;;;;;0.10;0.10;;;;;;;4.46;59.58;100154.94;4971932;28;20027;-79
2024/01/15 11:26:38;;;;;;;0.10;0.10;;;;;;;4.40;59.67;100142.31;4971767;28;20030;-86
2024/01/15 11:29:06;;;;;;;0.20;0.20;;;;;;;4.40;59.43;100159.41;4951829;28;20038;-82